Time;durP1;ratioP1;P1;durP2;ratioP2;P2;SDS_P1;SDS_P2;PMS_P1;PMS_P2;Temp;Humidity;BMP_temperature;BMP_pressure;BME280_temperature;BME280_humidity;BME280_pressure;Samples;Min_cycle;Max_cycle;Signal;HPM_P1;HPM_P2
2022/04/05 00:00:53;;;;;;;12.43;9.35;;;;;;;6.42;76.02;97606.16;4157432;28;20593;-89
2022/04/05 00:02:57;;;;;;;10.73;9.30;;;;;;;6.41;76.05;97601.91;4188430;28;20457;-89
2022/04/05 00:05:00;;;;;;;13.00;8.93;;;;;;;6.40;76.07;97607.16;4186997;28;20206;-89
2022/04/05 00:07:04;;;;;;;12.40;8.20;;;;;;;6.43;76.16;97594.84;4165318;28;20486;-90
2022/04/05 00:09:08;;;;;;;11.00;9.45;;;;;;;6.38;76.34;97604.66;4154173;28;20212;-89
2022/04/05 00:11:11;;;;;;;11.40;9.15;;;;;;;6.41;76.51;97596.72;4148895;28;20583;-89
2022/04/05 00:13:14;;;;;;;10.95;9.13;;;;;;;6.43;76.08;97583.69;4186082;28;20256;-90
2022/04/05 00:15:18;;;;;;;12.18;8.60;;;;;;;6.42;77.00;97588.03;4187662;28;20208;-90
2022/04/05 00:17:22;;;;;;;12.80;8.90;;;;;;;6.46;76.54;97589.50;4173863;28;20669;-89
2022/04/05 00:19:25;;;;;;;9.40;8.45;;;;;;;6.44;76.43;97580.16;4186105;28;20217;-90
2022/04/05 00:21:28;;;;;;;10.85;8.70;;;;;;;6.48;76.43;97584.22;4165453;28;20921;-88
2022/04/05 00:23:32;;;;;;;11.55;9.00;;;;;;;6.52;76.43;97583.94;4167845;28;20750;-90
2022/04/05 00:25:35;;;;;;;10.85;9.40;;;;;;;6.50;76.53;97579.81;4168956;28;20213;-89
2022/04/05 00:27:38;;;;;;;10.52;9.30;;;;;;;6.49;75.93;97573.78;4153309;28;20201;-90
2022/04/05 00:29:41;;;;;;;11.30;9.13;;;;;;;6.54;76.07;97576.94;4153434;28;20206;-91
2022/04/05 00:31:46;;;;;;;9.98;8.15;;;;;;;6.54;76.02;97576.94;4146962;28;20219;-89
2022/04/05 00:33:49;;;;;;;11.20;8.82;;;;;;;6.54;76.07;97573.50;4154924;28;20325;-90
2022/04/05 00:35:52;;;;;;;11.90;8.95;;;;;;;6.58;75.63;97580.97;4164148;28;20710;-90
2022/04/05 00:37:55;;;;;;;11.07;9.02;;;;;;;6.59;75.65;97574.88;4156320;28;20211;-89
2022/04/05 00:39:59;;;;;;;9.48;8.05;;;;;;;6.59;75.50;97587.84;4164014;28;20216;-90
2022/04/05 00:42:12;;;;;;;10.15;8.57;;;;;;;6.59;75.61;97570.53;4147215;28;20261;-90
2022/04/05 00:44:16;;;;;;;13.00;8.93;;;;;;;6.60;75.91;97568.78;4186736;28;20701;-90
2022/04/05 00:46:19;;;;;;;12.05;8.80;;;;;;;6.56;74.99;97562.94;4168918;28;20218;-90
2022/04/05 00:48:30;;;;;;;9.43;7.88;;;;;;;6.59;75.13;97567.13;4152621;28;20748;-90
2022/04/05 00:50:38;;;;;;;10.73;9.27;;;;;;;6.57;74.57;97568.97;4166840;28;20964;-91
2022/04/05 00:52:41;;;;;;;11.45;8.60;;;;;;;6.61;74.69;97567.84;4159648;28;20221;-90
2022/04/05 00:54:46;;;;;;;10.57;8.68;;;;;;;6.59;75.17;97562.75;4164326;28;20215;-90
2022/04/05 00:56:51;;;;;;;9.50;8.50;;;;;;;6.56;75.84;97560.34;4183388;28;20833;-90
2022/04/05 00:58:55;;;;;;;10.68;7.88;;;;;;;6.51;75.93;97561.59;4171916;28;20244;-90
2022/04/05 01:00:58;;;;;;;10.93;9.00;;;;;;;6.51;76.06;97553.81;4169937;28;20868;-90
2022/04/05 01:03:02;;;;;;;9.68;8.40;;;;;;;6.51;76.40;97561.59;4186105;28;20297;-90
2022/04/05 01:05:08;;;;;;;10.60;8.80;;;;;;;6.48;76.36;97554.00;4156150;28;20215;-90
2022/04/05 01:07:14;;;;;;;11.85;8.50;;;;;;;6.44;76.77;97562.03;4151289;28;20209;-91
2022/04/05 01:09:18;;;;;;;10.80;8.88;;;;;;;6.45;77.26;97553.34;4152787;28;20306;-90
2022/04/05 01:11:21;;;;;;;12.20;9.18;;;;;;;6.40;78.19;97556.19;4156024;28;20846;-90
2022/04/05 01:13:25;;;;;;;10.45;8.85;;;;;;;6.42;78.48;97556.09;4151871;28;20802;-90
2022/04/05 01:15:28;;;;;;;10.35;8.95;;;;;;;6.39;79.23;97551.97;4154715;28;20203;-90
2022/04/05 01:17:31;;;;;;;12.45;9.27;;;;;;;6.31;80.60;97541.22;4188724;28;20230;-89
2022/04/05 01:19:35;;;;;;;11.63;8.77;;;;;;;6.34;80.17;97542.78;4167266;28;20210;-91
2022/04/05 01:21:39;;;;;;;11.10;8.70;;;;;;;6.32;80.95;97537.72;4162730;28;20246;-90
2022/04/05 01:24:04;;;;;;;13.02;9.00;;;;;;;6.27;81.17;97547.53;4154773;28;20229;-90
2022/04/05 01:26:07;;;;;;;11.30;9.65;;;;;;;6.24;82.15;97537.34;4148457;28;20209;-90
2022/04/05 01:28:11;;;;;;;9.43;8.40;;;;;;;6.28;81.98;97543.16;4188352;28;20300;-90
2022/04/05 01:30:14;;;;;;;9.82;8.60;;;;;;;6.26;81.77;97540.66;4170360;28;20583;-90
2022/04/05 01:32:17;;;;;;;11.23;8.93;;;;;;;6.25;82.61;97535.59;4153436;28;20203;-91
2022/04/05 01:34:22;;;;;;;11.32;9.88;;;;;;;6.25;83.12;97540.75;4169863;28;20236;-89
2022/04/05 01:36:26;;;;;;;10.82;9.40;;;;;;;6.19;83.02;97535.94;4156742;28;20210;-90
2022/04/05 01:38:29;;;;;;;13.25;9.25;;;;;;;6.22;83.40;97530.59;4166566;28;20744;-90
2022/04/05 01:40:34;;;;;;;10.90;9.32;;;;;;;6.23;84.05;97538.25;4154714;28;20661;-90
2022/04/05 01:42:37;;;;;;;12.18;9.43;;;;;;;6.23;83.93;97535.69;4155727;28;20284;-90
2022/04/05 01:44:42;;;;;;;10.30;9.20;;;;;;;6.20;83.45;97535.84;4191280;28;20205;-89
2022/04/05 01:46:46;;;;;;;12.15;9.98;;;;;;;6.19;84.56;97534.22;4156794;28;20224;-90
2022/04/05 01:48:50;;;;;;;12.13;9.57;;;;;;;6.15;84.46;97531.91;4187050;28;20761;-90
2022/04/05 01:50:54;;;;;;;14.68;9.65;;;;;;;6.12;85.56;97543.25;4170815;28;20219;-90
2022/04/05 01:52:57;;;;;;;12.70;9.82;;;;;;;6.11;85.66;97533.00;4167731;28;20208;-88
2022/04/05 01:55:01;;;;;;;14.27;10.40;;;;;;;6.10;86.16;97528.72;4162277;28;20328;-90
2022/04/05 01:57:06;;;;;;;13.52;9.60;;;;;;;6.02;86.11;97522.38;4188945;28;20206;-87
2022/04/05 01:59:09;;;;;;;12.82;10.05;;;;;;;5.98;86.80;97520.88;4166837;28;20217;-87
2022/04/05 02:01:12;;;;;;;12.40;10.05;;;;;;;5.95;86.26;97518.47;4154950;28;20212;-87
2022/04/05 02:03:16;;;;;;;12.13;9.80;;;;;;;5.94;87.56;97512.47;4165293;28;20747;-88
2022/04/05 02:05:19;;;;;;;11.98;9.50;;;;;;;5.95;86.39;97510.72;4158809;28;20238;-89
2022/04/05 02:07:23;;;;;;;12.65;9.95;;;;;;;5.96;87.15;97514.97;4173410;28;20782;-90
2022/04/05 02:09:27;;;;;;;11.75;9.57;;;;;;;5.99;87.30;97515.59;4174560;28;20356;-90
2022/04/05 02:11:30;;;;;;;10.32;9.23;;;;;;;5.95;87.46;97506.34;4187099;28;20195;-89
2022/04/05 02:13:42;;;;;;;11.32;9.35;;;;;;;6.00;87.11;97509.53;4184074;28;20786;-90
2022/04/05 02:15:46;;;;;;;11.80;9.70;;;;;;;6.04;87.40;97508.41;4156471;28;20222;-90
2022/04/05 02:17:50;;;;;;;11.52;9.52;;;;;;;6.07;87.09;97508.22;4172209;28;20228;-90
2022/04/05 02:20:00;;;;;;;12.40;10.20;;;;;;;6.07;87.19;97510.81;4163737;28;20224;-91
2022/04/05 02:22:06;;;;;;;15.32;11.10;;;;;;;6.07;87.19;97507.38;4171408;28;20588;-90
2022/04/05 02:24:10;;;;;;;13.50;9.80;;;;;;;6.04;86.45;97510.16;4152520;28;20237;-91
2022/04/05 02:26:14;;;;;;;12.20;10.20;;;;;;;6.06;87.96;97510.88;4156626;28;20698;-91
2022/04/05 02:28:23;;;;;;;12.90;10.20;;;;;;;6.07;87.80;97512.56;4167483;28;20604;-89
2022/04/05 02:30:34;;;;;;;11.85;9.40;;;;;;;6.08;87.77;97517.66;4148322;28;20860;-88
2022/04/05 02:32:39;;;;;;;14.40;10.20;;;;;;;6.08;87.78;97516.84;4153419;28;20212;-88
2022/04/05 02:34:44;;;;;;;13.25;10.50;;;;;;;6.05;88.28;97520.41;4169527;28;20214;-87
2022/04/05 02:36:48;;;;;;;12.88;10.00;;;;;;;6.04;88.33;97513.56;4162456;28;20663;-88
2022/04/05 02:38:52;;;;;;;12.55;10.00;;;;;;;6.06;88.37;97514.34;4170529;28;20217;-88
2022/04/05 02:40:59;;;;;;;12.70;10.30;;;;;;;6.00;88.27;97517.28;4158849;28;20210;-88
2022/04/05 02:43:05;;;;;;;12.90;10.15;;;;;;;6.00;89.43;97516.44;4157325;28;20218;-89
2022/04/05 02:45:10;;;;;;;10.77;9.35;;;;;;;5.97;89.44;97517.47;4156878;28;20934;-87
2022/04/05 02:47:16;;;;;;;11.95;9.23;;;;;;;5.99;89.24;97519.97;4170707;28;20601;-89
2022/04/05 02:49:23;;;;;;;12.90;9.95;;;;;;;6.00;89.62;97526.78;4158625;28;20265;-88
2022/04/05 02:51:26;;;;;;;12.07;9.82;;;;;;;5.98;89.28;97520.88;4173193;28;20312;-88
2022/04/05 02:53:32;;;;;;;14.05;10.30;;;;;;;6.00;89.07;97521.59;4156868;28;20753;-89
2022/04/05 02:55:36;;;;;;;12.95;11.13;;;;;;;6.00;89.49;97517.28;4153368;28;20749;-88
2022/04/05 02:57:41;;;;;;;12.57;10.20;;;;;;;6.01;89.32;97523.28;4170286;28;20205;-90
2022/04/05 02:59:52;;;;;;;15.13;11.75;;;;;;;6.04;90.00;97525.69;4154772;28;20198;-87
2022/04/05 03:01:56;;;;;;;12.32;10.07;;;;;;;6.02;89.99;97515.44;4162337;28;20230;-88
2022/04/05 03:04:01;;;;;;;15.68;9.95;;;;;;;6.02;89.95;97530.13;4189073;28;20209;-89
2022/04/05 03:06:05;;;;;;;13.15;10.60;;;;;;;6.00;89.93;97519.03;4157698;28;20203;-88
2022/04/05 03:08:08;;;;;;;14.30;10.35;;;;;;;6.09;89.65;97522.75;4167448;28;20918;-89
2022/04/05 03:10:14;;;;;;;13.80;9.65;;;;;;;6.16;90.06;97515.44;4185333;28;20204;-89
2022/04/05 03:12:21;;;;;;;11.85;9.70;;;;;;;6.20;89.79;97512.56;4168873;28;20664;-89
2022/04/05 03:14:28;;;;;;;12.38;9.95;;;;;;;6.25;89.77;97518.28;4154931;28;20259;-88
2022/04/05 03:16:37;;;;;;;12.95;11.13;;;;;;;6.29;90.11;97522.38;4151914;28;20211;-89
2022/04/05 03:18:47;;;;;;;15.35;11.60;;;;;;;6.36;90.58;97515.91;4166956;28;20742;-89
2022/04/05 03:20:53;;;;;;;13.32;10.23;;;;;;;6.42;90.32;97525.88;4154641;28;20231;-89
2022/04/05 03:22:59;;;;;;;11.65;10.25;;;;;;;6.47;90.16;97523.84;4156420;28;20240;-89
2022/04/05 03:25:02;;;;;;;12.52;10.30;;;;;;;6.51;89.97;97532.25;4170353;28;20209;-89
2022/04/05 03:27:06;;;;;;;16.33;11.10;;;;;;;6.54;90.12;97538.09;4154303;28;20267;-87
2022/04/05 03:29:10;;;;;;;13.68;10.02;;;;;;;6.57;89.84;97530.13;4168873;28;20221;-89
2022/04/05 03:31:13;;;;;;;14.13;11.02;;;;;;;6.58;90.47;97527.44;4152976;28;20210;-89
2022/04/05 03:33:20;;;;;;;14.68;11.05;;;;;;;6.63;89.75;97533.16;4170745;28;20300;-88
2022/04/05 03:35:24;;;;;;;14.00;11.40;;;;;;;6.65;89.79;97533.06;4157803;28;20210;-89
2022/04/05 03:37:29;;;;;;;13.45;10.93;;;;;;;6.68;89.52;97532.88;4155238;28;20203;-88
2022/04/05 03:39:32;;;;;;;16.80;11.35;;;;;;;6.70;89.47;97526.66;4172832;28;20217;-89
2022/04/05 03:41:36;;;;;;;13.90;11.00;;;;;;;6.71;89.81;97523.16;4155769;28;20206;-87
2022/04/05 03:43:39;;;;;;;15.10;11.63;;;;;;;6.74;89.71;97528.13;4169662;28;20250;-88
2022/04/05 03:45:43;;;;;;;17.60;11.00;;;;;;;6.76;89.12;97526.28;4185985;28;20216;-88
2022/04/05 03:47:47;;;;;;;12.75;10.75;;;;;;;6.76;90.03;97522.88;4165316;28;20253;-89
2022/04/05 03:49:51;;;;;;;11.95;9.68;;;;;;;6.80;89.30;97526.94;4153777;28;20247;-89
2022/04/05 03:51:55;;;;;;;13.90;10.75;;;;;;;6.81;89.62;97518.22;4151097;28;20305;-89
2022/04/05 03:53:59;;;;;;;13.32;11.45;;;;;;;6.81;89.49;97515.63;4169445;28;20269;-88
2022/04/05 03:56:06;;;;;;;13.27;10.73;;;;;;;6.78;89.65;97510.63;4164277;28;20642;-88
2022/04/05 03:58:12;;;;;;;14.02;10.68;;;;;;;6.77;89.57;97516.75;4154094;28;20274;-89
2022/04/05 04:00:17;;;;;;;14.25;10.50;;;;;;;6.73;88.94;97518.69;4170268;28;20762;-88
2022/04/05 04:02:34;;;;;;;14.68;10.45;;;;;;;6.70;88.79;97520.66;4152222;28;20643;-89
2022/04/05 04:04:38;;;;;;;11.52;10.00;;;;;;;6.68;89.18;97520.75;4172197;28;20194;-92
2022/04/05 04:06:42;;;;;;;13.02;10.43;;;;;;;6.70;89.80;97515.47;4163625;28;20256;-89
2022/04/05 04:08:46;;;;;;;13.55;10.75;;;;;;;6.69;89.91;97513.78;4169162;28;20205;-90
2022/04/05 04:10:52;;;;;;;14.65;10.95;;;;;;;6.64;89.49;97508.91;4156271;28;20608;-90
2022/04/05 04:12:59;;;;;;;15.15;10.55;;;;;;;6.51;89.43;97504.59;4171189;28;20247;-90
2022/04/05 04:15:09;;;;;;;16.58;10.73;;;;;;;6.44;89.61;97516.25;4153971;28;20700;-90
2022/04/05 04:17:13;;;;;;;11.35;9.60;;;;;;;6.38;89.42;97502.84;4167490;28;20209;-88
2022/04/05 04:19:16;;;;;;;17.17;11.57;;;;;;;6.33;89.87;97504.88;4185911;28;20726;-87
2022/04/05 04:21:19;;;;;;;14.75;10.15;;;;;;;6.29;89.85;97514.59;4170161;28;20213;-90
2022/04/05 04:23:23;;;;;;;13.43;11.25;;;;;;;6.27;90.20;97508.69;4169108;28;20910;-89
2022/04/05 04:25:31;;;;;;;14.30;11.32;;;;;;;6.26;90.37;97506.19;4170662;28;20881;-89
2022/04/05 04:27:36;;;;;;;13.35;9.35;;;;;;;6.26;89.97;97507.00;4156132;28;21023;-89
2022/04/05 04:29:39;;;;;;;15.77;10.85;;;;;;;6.26;90.53;97504.44;4160163;28;20214;-89
2022/04/05 04:31:42;;;;;;;13.50;10.02;;;;;;;6.23;90.22;97504.63;4155919;28;20299;-90
2022/04/05 04:33:46;;;;;;;12.63;10.73;;;;;;;6.27;90.12;97500.94;4170814;28;20241;-90
2022/04/05 04:35:50;;;;;;;12.80;10.40;;;;;;;6.31;91.07;97497.19;4156634;28;20640;-87
2022/04/05 04:37:53;;;;;;;13.52;10.43;;;;;;;6.37;90.01;97502.00;4178949;28;20245;-91
2022/04/05 04:39:56;;;;;;;12.57;10.65;;;;;;;6.42;90.02;97502.59;4158193;28;20268;-87
2022/04/05 04:41:59;;;;;;;12.55;10.43;;;;;;;6.36;89.49;97510.72;4171790;28;20209;-90
2022/04/05 04:44:04;;;;;;;13.85;9.82;;;;;;;6.38;89.28;97506.28;4150722;28;20219;-89
2022/04/05 04:46:08;;;;;;;12.02;10.27;;;;;;;6.41;89.35;97506.09;4163228;28;20202;-90
2022/04/05 04:48:11;;;;;;;13.10;10.52;;;;;;;6.40;89.75;97506.19;4157131;28;20313;-91
2022/04/05 04:50:14;;;;;;;13.73;10.00;;;;;;;6.41;89.15;97500.09;4153931;28;20195;-91
2022/04/05 04:52:17;;;;;;;13.40;10.02;;;;;;;6.41;89.51;97503.50;4166676;28;20345;-90
2022/04/05 04:54:21;;;;;;;12.38;9.85;;;;;;;6.42;89.29;97512.09;4173111;28;20704;-88
2022/04/05 04:56:24;;;;;;;14.98;10.10;;;;;;;6.43;89.43;97516.34;4171874;28;20235;-91
2022/04/05 04:58:27;;;;;;;12.90;10.05;;;;;;;6.47;89.18;97510.06;4158864;28;20667;-90
2022/04/05 05:00:32;;;;;;;16.05;10.63;;;;;;;6.47;89.60;97512.66;4170091;28;20206;-90
2022/04/05 05:02:44;;;;;;;13.82;10.68;;;;;;;6.48;89.72;97514.28;4158997;28;20199;-90
2022/04/05 05:04:48;;;;;;;13.90;10.55;;;;;;;6.46;89.74;97505.81;4155526;28;20230;-91
2022/04/05 05:06:53;;;;;;;11.52;9.50;;;;;;;6.49;89.11;97511.63;4167877;28;20240;-88
2022/04/05 05:08:56;;;;;;;13.27;9.82;;;;;;;6.54;89.87;97513.91;4187672;28;20248;-92
2022/04/05 05:11:00;;;;;;;11.55;10.23;;;;;;;6.56;90.00;97507.72;4172359;28;20233;-91
2022/04/05 05:13:04;;;;;;;14.35;10.15;;;;;;;6.59;90.02;97508.38;4172078;28;20271;-92
2022/04/05 05:15:08;;;;;;;13.95;10.52;;;;;;;6.63;90.11;97509.84;4173014;28;20744;-91
2022/04/05 05:17:13;;;;;;;15.57;10.38;;;;;;;6.64;89.98;97506.31;4168747;28;20213;-92
2022/04/05 05:19:16;;;;;;;14.63;11.00;;;;;;;6.66;90.06;97501.88;4167303;28;20210;-91
2022/04/05 05:21:19;;;;;;;11.27;9.35;;;;;;;6.68;90.13;97509.56;4188376;28;20205;-88
2022/04/05 05:23:23;;;;;;;12.95;10.75;;;;;;;6.70;89.77;97515.47;4169554;28;20213;-90
2022/04/05 05:25:27;;;;;;;16.60;10.77;;;;;;;6.70;89.94;97518.06;4173842;28;20825;-90
2022/04/05 05:27:30;;;;;;;13.07;10.40;;;;;;;6.74;90.09;97519.53;4187684;28;20235;-89
2022/04/05 05:29:33;;;;;;;13.32;10.73;;;;;;;6.73;90.67;97512.69;4171531;28;20199;-89
2022/04/05 05:31:36;;;;;;;13.38;10.90;;;;;;;6.78;90.57;97523.59;4153407;28;20206;-88
2022/04/05 05:33:41;;;;;;;15.25;10.30;;;;;;;6.76;90.37;97515.91;4170985;28;20396;-88
2022/04/05 05:35:45;;;;;;;13.65;11.00;;;;;;;6.80;90.41;97519.16;4155058;28;20290;-89
2022/04/05 05:37:49;;;;;;;12.88;10.40;;;;;;;6.84;90.78;97516.28;4171913;28;20214;-88
2022/04/05 05:39:53;;;;;;;16.85;11.30;;;;;;;6.81;90.56;97523.41;4187258;28;20215;-89
2022/04/05 05:41:56;;;;;;;14.43;10.80;;;;;;;6.83;90.11;97535.34;4168901;28;20209;-90
2022/04/05 05:43:59;;;;;;;17.00;11.48;;;;;;;6.80;90.02;97532.13;4171877;28;20660;-90
2022/04/05 05:46:04;;;;;;;14.52;11.55;;;;;;;6.76;90.94;97530.63;4174940;28;20215;-89
2022/04/05 05:48:08;;;;;;;14.48;11.20;;;;;;;6.71;91.09;97538.69;4174101;28;20745;-89
2022/04/05 05:50:13;;;;;;;13.48;10.75;;;;;;;6.67;91.13;97541.56;4173233;28;20217;-89
2022/04/05 05:52:16;;;;;;;15.75;11.70;;;;;;;6.71;91.27;97538.69;4156475;28;20302;-90
2022/04/05 05:54:19;;;;;;;13.10;10.02;;;;;;;6.66;91.21;97539.91;4172189;28;20706;-89
2022/04/05 05:56:22;;;;;;;14.02;11.05;;;;;;;6.64;91.17;97542.56;4170509;28;20215;-89
2022/04/05 05:58:26;;;;;;;16.13;10.30;;;;;;;6.61;92.06;97536.75;4161096;28;20753;-88
2022/04/05 06:00:29;;;;;;;14.50;10.63;;;;;;;6.56;91.95;97539.63;4169290;28;20197;-88
2022/04/05 06:02:32;;;;;;;13.48;10.85;;;;;;;6.57;91.88;97532.72;4155652;28;20326;-88
2022/04/05 06:04:36;;;;;;;14.63;10.40;;;;;;;6.55;93.01;97536.31;4188178;28;20217;-88
2022/04/05 06:06:40;;;;;;;12.85;10.07;;;;;;;6.45;91.99;97538.66;4173677;28;20294;-89
2022/04/05 06:08:44;;;;;;;13.60;10.32;;;;;;;6.43;92.59;97537.88;4158419;28;20206;-88
2022/04/05 06:10:47;;;;;;;17.52;11.00;;;;;;;6.39;92.97;97540.75;4156775;28;20819;-88
2022/04/05 06:12:51;;;;;;;14.88;10.88;;;;;;;6.40;93.04;97543.25;4168168;28;20251;-86
2022/04/05 06:14:55;;;;;;;14.07;10.60;;;;;;;6.42;92.68;97543.16;4157062;28;20256;-84
2022/04/05 06:16:58;;;;;;;13.23;10.35;;;;;;;6.40;93.09;97551.00;4187279;28;20337;-87
2022/04/05 06:19:01;;;;;;;13.98;10.68;;;;;;;6.33;93.19;97552.34;4156697;28;20719;-87
2022/04/05 06:21:04;;;;;;;12.57;10.95;;;;;;;6.33;93.51;97551.47;4168408;28;20237;-86
2022/04/05 06:23:09;;;;;;;13.27;11.10;;;;;;;6.30;94.13;97547.34;4159232;28;20300;-88
2022/04/05 06:25:14;;;;;;;19.75;13.43;;;;;;;6.24;93.80;97552.88;4176522;28;20244;-88
2022/04/05 06:27:17;;;;;;;13.65;11.65;;;;;;;6.23;93.87;97551.22;4179813;28;20253;-87
2022/04/05 06:29:23;;;;;;;17.50;12.40;;;;;;;6.26;94.18;97552.78;4176166;28;20263;-89
2022/04/05 06:31:26;;;;;;;14.85;10.85;;;;;;;6.32;94.09;97548.06;4189584;28;20205;-85
2022/04/05 06:33:30;;;;;;;17.63;11.50;;;;;;;6.38;94.67;97550.28;4156392;28;20234;-87
2022/04/05 06:35:34;;;;;;;21.77;17.02;;;;;;;6.38;94.51;97558.06;4157035;28;20211;-90
2022/04/05 06:37:37;;;;;;;17.83;13.93;;;;;;;6.41;94.74;97557.88;4170546;28;20206;-91
2022/04/05 06:39:42;;;;;;;16.40;12.05;;;;;;;6.45;94.76;97550.75;4192219;28;20210;-90
2022/04/05 06:41:45;;;;;;;14.75;11.30;;;;;;;6.51;94.54;97552.97;4154455;28;20223;-87
2022/04/05 06:43:48;;;;;;;13.60;11.02;;;;;;;6.60;94.12;97556.66;4186139;28;20216;-87
2022/04/05 06:45:52;;;;;;;15.38;9.75;;;;;;;6.65;93.52;97564.97;4156425;28;20251;-87
2022/04/05 06:47:55;;;;;;;14.50;11.20;;;;;;;6.66;94.07;97560.63;4151144;28;20221;-88
2022/04/05 06:49:59;;;;;;;13.18;9.55;;;;;;;6.68;93.30;97563.97;4186147;28;20776;-87
2022/04/05 06:52:02;;;;;;;15.20;11.02;;;;;;;6.71;93.61;97556.84;4191022;28;20209;-88
2022/04/05 06:54:06;;;;;;;15.00;11.35;;;;;;;6.66;92.73;97560.63;4187972;28;20223;-90
2022/04/05 06:56:10;;;;;;;13.90;10.75;;;;;;;6.67;93.92;97557.13;4163280;28;20294;-88
2022/04/05 06:58:14;;;;;;;14.43;10.98;;;;;;;6.72;93.80;97557.66;4156590;28;20210;-91
2022/04/05 07:00:19;;;;;;;14.68;11.23;;;;;;;6.71;94.00;97561.19;4157084;28;20289;-85
2022/04/05 07:02:23;;;;;;;14.20;11.10;;;;;;;6.73;93.72;97564.50;4173396;28;20312;-85
2022/04/05 07:04:26;;;;;;;13.32;10.98;;;;;;;6.77;93.33;97563.41;4175191;28;20264;-83
2022/04/05 07:06:29;;;;;;;14.23;10.90;;;;;;;6.84;93.50;97559.47;4190017;28;20206;-85
2022/04/05 07:08:33;;;;;;;12.80;11.23;;;;;;;6.78;92.99;97558.13;4175023;28;20283;-85
2022/04/05 07:10:37;;;;;;;13.50;10.30;;;;;;;6.76;93.83;97564.31;4173446;28;20232;-84
2022/04/05 07:12:42;;;;;;;14.13;10.32;;;;;;;6.80;94.09;97553.66;4169755;28;20209;-85
2022/04/05 07:14:47;;;;;;;12.98;10.45;;;;;;;6.85;93.79;97548.19;4191300;28;20259;-86
2022/04/05 07:16:50;;;;;;;12.15;10.55;;;;;;;6.90;93.49;97551.34;4192846;28;20202;-86
2022/04/05 07:18:53;;;;;;;12.98;11.55;;;;;;;6.97;94.72;97563.00;4158143;28;20257;-86
2022/04/05 07:20:57;;;;;;;12.70;10.52;;;;;;;7.01;94.52;97562.69;4186740;28;20210;-85
2022/04/05 07:23:00;;;;;;;11.75;9.95;;;;;;;7.03;94.18;97561.66;4152518;28;20197;-86
2022/04/05 07:25:03;;;;;;;15.18;10.50;;;;;;;7.11;93.79;97564.63;4159540;28;21025;-86
2022/04/05 07:27:06;;;;;;;13.43;11.25;;;;;;;7.20;93.27;97558.84;4170485;28;20233;-86
2022/04/05 07:29:11;;;;;;;29.40;11.60;;;;;;;7.28;94.35;97568.75;4173009;28;20249;-85
2022/04/05 07:31:14;;;;;;;11.13;9.85;;;;;;;7.33;93.04;97556.31;4172511;28;20690;-86
2022/04/05 07:33:18;;;;;;;16.05;9.73;;;;;;;7.40;93.04;97565.38;4149234;28;20231;-91
2022/04/05 07:35:22;;;;;;;12.82;10.40;;;;;;;7.46;93.50;97562.34;4168873;28;20241;-86
2022/04/05 07:37:26;;;;;;;13.63;10.00;;;;;;;7.50;92.11;97562.06;4168014;28;20233;-86
2022/04/05 07:39:36;;;;;;;13.32;9.50;;;;;;;7.53;92.81;97552.34;4186600;28;20226;-86
2022/04/05 07:41:44;;;;;;;12.55;10.38;;;;;;;7.63;93.41;97553.38;4190476;28;20194;-87
2022/04/05 07:43:47;;;;;;;23.00;16.40;;;;;;;7.69;93.59;97552.16;4162464;28;20531;-88
2022/04/05 07:45:52;;;;;;;20.88;13.32;;;;;;;7.73;92.30;97558.81;4171366;28;20780;-87
2022/04/05 07:47:55;;;;;;;12.80;10.07;;;;;;;7.74;91.96;97552.69;4184526;28;20306;-87
2022/04/05 07:49:59;;;;;;;13.30;10.57;;;;;;;7.78;91.85;97560.16;4176529;28;20207;-87
2022/04/05 07:52:05;;;;;;;13.00;10.38;;;;;;;7.81;92.79;97551.34;4169227;28;20264;-87
2022/04/05 07:54:08;;;;;;;12.10;10.07;;;;;;;7.87;91.21;97556.13;4171675;28;20225;-87
2022/04/05 07:56:13;;;;;;;11.23;9.32;;;;;;;7.91;90.90;97558.44;4169817;28;20210;-87
2022/04/05 07:58:16;;;;;;;11.25;9.60;;;;;;;7.94;90.91;97558.22;4184636;28;20853;-87
2022/04/05 08:00:20;;;;;;;11.65;9.20;;;;;;;7.97;92.39;97566.63;4169889;28;20237;-87
2022/04/05 08:02:24;;;;;;;13.95;10.20;;;;;;;8.01;92.54;97562.06;4154512;28;20245;-87
2022/04/05 08:04:32;;;;;;;12.02;10.38;;;;;;;8.05;91.89;97571.31;4151200;28;20239;-87
2022/04/05 08:06:35;;;;;;;13.10;10.50;;;;;;;8.08;91.92;97566.75;4164548;28;20238;-85
2022/04/05 08:08:39;;;;;;;13.02;9.65;;;;;;;8.10;90.48;97562.31;4181421;28;20210;-86
2022/04/05 08:11:01;;;;;;;10.93;9.57;;;;;;;8.14;91.39;97566.38;4167312;28;20240;-90
2022/04/05 08:13:04;;;;;;;12.35;10.75;;;;;;;8.17;91.72;97570.53;4156639;28;20199;-88
2022/04/05 08:15:08;;;;;;;13.55;10.52;;;;;;;8.19;91.96;97579.03;4170855;28;20562;-89
2022/04/05 08:17:12;;;;;;;17.88;14.35;;;;;;;8.19;91.38;97573.84;4172392;28;20229;-89
2022/04/05 08:19:17;;;;;;;15.75;13.25;;;;;;;8.23;90.91;97575.31;4152653;28;20213;-91
2022/04/05 08:21:25;;;;;;;13.13;10.55;;;;;;;8.28;90.41;97579.25;4164656;28;20291;-88
2022/04/05 08:23:28;;;;;;;12.38;10.20;;;;;;;8.34;91.50;97578.00;4152817;28;20209;-87
2022/04/05 08:25:33;;;;;;;12.48;9.68;;;;;;;8.37;90.06;97583.00;4165212;28;20234;-86
2022/04/05 08:27:39;;;;;;;13.38;10.32;;;;;;;8.41;91.14;97581.88;4137998;28;20212;-86
2022/04/05 08:29:42;;;;;;;14.00;10.43;;;;;;;8.43;91.10;97577.41;4187790;28;20664;-86
2022/04/05 08:31:45;;;;;;;16.30;9.75;;;;;;;8.45;90.42;97584.16;4170150;28;20208;-87
2022/04/05 08:33:49;;;;;;;12.98;10.60;;;;;;;8.48;91.54;97581.34;4169317;28;20341;-87
2022/04/05 08:35:53;;;;;;;16.45;11.57;;;;;;;8.51;91.06;97588.94;4186009;28;20274;-87
2022/04/05 08:37:57;;;;;;;14.43;11.60;;;;;;;8.55;91.78;97587.78;4171889;28;20210;-86
2022/04/05 08:40:06;;;;;;;12.68;10.82;;;;;;;8.59;90.99;97587.47;4159245;28;20969;-87
2022/04/05 08:42:09;;;;;;;14.07;10.33;;;;;;;8.62;92.27;97595.06;4190889;28;20242;-86
2022/04/05 08:44:14;;;;;;;12.45;9.98;;;;;;;8.67;91.97;97592.97;4184671;28;20649;-87
2022/04/05 08:46:18;;;;;;;18.03;11.77;;;;;;;8.72;91.47;97595.25;4169462;28;20247;-87
2022/04/05 08:48:26;;;;;;;13.05;10.70;;;;;;;8.77;91.05;97598.38;4186706;28;20623;-87
2022/04/05 08:50:33;;;;;;;11.25;9.85;;;;;;;8.80;91.95;97595.56;4165579;28;20405;-87
2022/04/05 08:52:38;;;;;;;18.10;14.23;;;;;;;8.81;92.37;97600.66;4171884;28;20245;-86
2022/04/05 08:54:41;;;;;;;16.63;14.03;;;;;;;8.80;90.98;97592.97;4185569;28;20640;-86
2022/04/05 08:56:46;;;;;;;11.53;9.93;;;;;;;8.76;90.46;97592.31;4155065;28;20629;-87
2022/04/05 08:58:51;;;;;;;11.38;9.85;;;;;;;8.75;90.59;97589.81;4173111;28;20652;-87
2022/04/05 09:00:56;;;;;;;10.30;9.20;;;;;;;8.76;90.32;97589.72;4156795;28;20960;-87
2022/04/05 09:03:00;;;;;;;12.27;10.10;;;;;;;8.77;90.90;97591.41;4146401;28;20218;-87
2022/04/05 09:05:05;;;;;;;11.02;9.60;;;;;;;8.82;91.24;97596.28;4187097;28;20672;-87
2022/04/05 09:07:23;;;;;;;10.82;9.43;;;;;;;8.74;89.41;97586.41;4171137;28;20297;-87
2022/04/05 09:09:30;;;;;;;12.25;10.05;;;;;;;8.75;90.46;97588.09;4186742;28;20211;-87
2022/04/05 09:11:33;;;;;;;12.55;10.45;;;;;;;8.70;90.22;97592.75;4175624;28;20217;-87
2022/04/05 09:13:36;;;;;;;11.83;10.07;;;;;;;8.67;90.52;97592.97;4173191;28;20600;-87
2022/04/05 09:15:41;;;;;;;14.85;10.57;;;;;;;8.71;91.96;97585.81;4157823;28;20641;-87
2022/04/05 09:17:46;;;;;;;14.70;10.68;;;;;;;8.78;92.75;97593.06;4172970;28;20210;-87
2022/04/05 09:19:50;;;;;;;11.60;10.40;;;;;;;8.84;92.55;97597.00;4170168;28;20209;-87
2022/04/05 09:21:57;;;;;;;12.43;10.20;;;;;;;8.89;91.68;97594.94;4167252;28;20633;-87
2022/04/05 09:24:07;;;;;;;13.53;10.30;;;;;;;8.93;90.82;97592.84;4183917;28;20671;-87
2022/04/05 09:26:13;;;;;;;11.90;10.13;;;;;;;8.98;92.29;97588.13;4170902;28;21054;-86
2022/04/05 09:28:26;;;;;;;13.60;10.90;;;;;;;9.01;90.92;97587.91;4186880;28;21333;-87
2022/04/05 09:30:31;;;;;;;14.80;11.07;;;;;;;9.04;90.96;97595.50;4150939;28;21319;-87
2022/04/05 09:32:36;;;;;;;11.88;9.90;;;;;;;9.07;90.52;97594.47;4172577;28;20619;-87
2022/04/05 09:34:57;;;;;;;19.55;13.40;;;;;;;9.11;91.67;97588.09;4170529;28;20694;-87
2022/04/05 09:37:08;;;;;;;13.90;11.33;;;;;;;9.12;91.37;97593.19;4158472;28;20258;-87
2022/04/05 09:39:20;;;;;;;13.63;10.20;;;;;;;9.14;90.92;97593.94;4188389;28;20633;-87
2022/04/05 09:41:25;;;;;;;12.30;10.37;;;;;;;9.15;89.01;97597.34;4191273;28;20644;-87
2022/04/05 09:43:29;;;;;;;12.97;10.90;;;;;;;9.18;90.06;97594.53;4160930;28;20693;-87